createdAt,value
2016-03-01T00:00:00.619Z,0
2016-03-01T00:01:00.575Z,0
2016-03-01T00:02:00.562Z,0
2016-03-01T00:03:00.533Z,0
2016-03-01T00:04:00.505Z,0
2016-03-01T00:05:00.491Z,0
2016-03-01T00:06:00.464Z,0
2016-03-01T00:07:00.435Z,0
2016-03-01T00:08:00.406Z,0
2016-03-01T00:09:00.393Z,0
2016-03-01T00:10:00.412Z,0
2016-03-01T00:11:00.320Z,0
2016-03-01T00:12:00.307Z,0
2016-03-01T00:13:00.279Z,0
2016-03-01T00:14:00.266Z,0
2016-03-01T00:15:00.253Z,0
2016-03-01T00:16:00.240Z,0
2016-03-01T00:17:00.195Z,0
2016-03-01T00:18:00.184Z,0
2016-03-01T00:19:00.139Z,0
2016-03-01T00:20:00.095Z,0
2016-03-01T00:21:00.128Z,0
2016-03-01T00:22:00.054Z,0
2016-03-01T00:23:00.040Z,0
2016-03-01T00:24:00.012Z,0
2016-03-01T00:24:59.984Z,0
2016-03-01T00:25:59.970Z,0
2016-03-01T00:26:59.926Z,0
2016-03-01T00:27:59.897Z,0
2016-03-01T00:28:59.931Z,0
2016-03-01T00:29:59.918Z,0
2016-03-01T00:31:00.002Z,0
2016-03-01T00:31:59.833Z,0
2016-03-01T00:32:59.772Z,0
2016-03-01T00:33:59.760Z,0
2016-03-01T00:34:59.778Z,0
2016-03-01T00:35:59.844Z,0
2016-03-01T00:36:59.675Z,0
2016-03-01T00:37:59.677Z,0
2016-03-01T00:38:59.633Z,0
2016-03-01T00:39:59.604Z,0
2016-03-01T00:40:59.591Z,0
2016-03-01T00:41:59.547Z,0
2016-03-01T00:42:59.519Z,0
2016-03-01T00:43:59.521Z,0
2016-03-01T00:44:59.463Z,0
2016-03-01T00:45:59.449Z,0
2016-03-01T00:46:59.421Z,0
2016-03-01T00:47:59.392Z,0
2016-03-01T00:48:59.379Z,0
2016-03-01T00:49:59.365Z,0
2016-03-01T00:50:59.321Z,0
2016-03-01T00:51:59.313Z,0
2016-03-01T00:52:59.284Z,0
2016-03-01T00:53:59.240Z,0
2016-03-01T00:54:59.243Z,0
2016-03-01T00:55:59.229Z,0
2016-03-01T00:56:59.170Z,0
2016-03-01T00:57:59.141Z,0
2016-03-01T00:58:59.129Z,0
2016-03-01T00:59:59.100Z,0
2016-03-01T01:00:59.071Z,0
2016-03-01T01:01:59.042Z,0
2016-03-01T01:02:59.015Z,0
2016-03-01T01:03:59.002Z,0
2016-03-01T01:04:58.988Z,0
2016-03-01T01:05:58.929Z,0
2016-03-01T01:06:58.931Z,0
2016-03-01T01:07:58.934Z,0
2016-03-01T01:08:58.874Z,0
2016-03-01T01:09:58.846Z,0
2016-03-01T01:10:58.864Z,0
2016-03-01T01:11:58.789Z,0
2016-03-01T01:12:58.806Z,0
2016-03-01T01:13:58.762Z,0
2016-03-01T01:14:58.702Z,0
2016-03-01T01:15:58.799Z,0
2016-03-01T01:16:58.661Z,0
2016-03-01T01:17:58.633Z,0
2016-03-01T01:18:58.650Z,0
2016-03-01T01:19:58.575Z,0
2016-03-01T01:20:58.593Z,0
2016-03-01T01:21:58.706Z,0
2016-03-01T01:22:58.553Z,0
2016-03-01T01:23:58.539Z,0
2016-03-01T01:24:58.574Z,0
2016-03-01T01:25:58.419Z,0
2016-03-01T01:26:58.407Z,0
2016-03-01T01:27:58.425Z,0
2016-03-01T01:28:58.365Z,0
2016-03-01T01:29:58.337Z,0
2016-03-01T01:30:58.198Z,0
2016-03-01T01:31:58.264Z,0
2016-03-01T01:32:58.251Z,0
2016-03-01T01:33:58.238Z,0
2016-03-01T01:34:58.226Z,0
2016-03-01T01:35:58.181Z,0
2016-03-01T01:36:58.153Z,0
2016-03-01T01:37:58.311Z,0
2016-03-01T01:38:58.112Z,0
2016-03-01T01:39:58.082Z,0
2016-03-01T01:40:58.054Z,0
2016-03-01T01:41:58.026Z,0
2016-03-01T01:42:57.840Z,0
2016-03-01T01:43:57.968Z,0
2016-03-01T01:44:57.970Z,0
2016-03-01T01:45:58.005Z,0
2016-03-01T01:46:57.930Z,0
2016-03-01T01:47:57.870Z,0
2016-03-01T01:48:57.841Z,0
2016-03-01T01:49:57.828Z,0
2016-03-01T01:50:57.783Z,0
2016-03-01T01:51:57.771Z,0
2016-03-01T01:52:57.758Z,0
2016-03-01T01:53:57.730Z,0
2016-03-01T01:54:57.701Z,0
2016-03-01T01:55:57.688Z,0
2016-03-01T01:56:57.643Z,0
2016-03-01T01:57:57.631Z,0
2016-03-01T01:58:57.602Z,0
2016-03-01T01:59:57.558Z,0
2016-03-01T02:00:57.545Z,0
2016-03-01T02:01:57.532Z,0
2016-03-01T02:02:57.488Z,0
2016-03-01T02:03:57.491Z,0
2016-03-01T02:04:57.446Z,0
2016-03-01T02:05:57.418Z,0
2016-03-01T02:06:57.390Z,0
2016-03-01T02:07:57.377Z,0
2016-03-01T02:08:57.348Z,0
2016-03-01T02:09:57.320Z,0
2016-03-01T02:10:57.290Z,0
2016-03-01T02:11:57.262Z,0
2016-03-01T02:12:57.234Z,0
2016-03-01T02:13:57.284Z,0
2016-03-01T02:14:57.208Z,0
2016-03-01T02:15:57.195Z,0
2016-03-01T02:16:57.150Z,0
2016-03-01T02:17:57.106Z,0
2016-03-01T02:18:57.078Z,0
2016-03-01T02:19:57.096Z,0
2016-03-01T02:20:57.404Z,0
2016-03-01T02:21:57.065Z,0
2016-03-01T02:22:59.635Z,0
2016-03-01T02:23:57.411Z,0
2016-03-01T02:24:57.180Z,0
2016-03-01T02:25:57.291Z,0
2016-03-01T02:26:56.952Z,0
2016-03-01T02:27:56.954Z,0
2016-03-01T02:28:56.816Z,0
2016-03-01T02:29:56.803Z,0
2016-03-01T02:30:56.791Z,0
2016-03-01T02:31:56.761Z,0
2016-03-01T02:32:56.733Z,0
2016-03-01T02:33:56.720Z,0
2016-03-01T02:34:56.676Z,0
2016-03-01T02:35:56.663Z,0
2016-03-01T02:36:56.618Z,0
2016-03-01T02:37:56.590Z,0
2016-03-01T02:38:56.592Z,0
2016-03-01T02:39:56.565Z,0
2016-03-01T02:40:56.535Z,0
2016-03-01T02:41:56.538Z,0
2016-03-01T02:42:56.479Z,0
2016-03-01T02:43:56.465Z,0
2016-03-01T02:44:56.406Z,0
2016-03-01T02:45:56.392Z,0
2016-03-01T02:46:56.411Z,0
2016-03-01T02:47:56.414Z,0
2016-03-01T02:48:56.323Z,0
2016-03-01T02:49:56.294Z,0
2016-03-01T02:50:56.250Z,0
2016-03-01T02:51:56.237Z,0
2016-03-01T02:52:56.239Z,0
2016-03-01T02:53:56.180Z,0
2016-03-01T02:54:56.167Z,0
2016-03-01T02:55:56.154Z,0
2016-03-01T02:56:56.110Z,0
2016-03-01T02:57:56.097Z,0
2016-03-01T02:58:56.100Z,0
2016-03-01T02:59:56.024Z,0
2016-03-01T03:00:56.011Z,0
2016-03-01T03:01:55.982Z,0
2016-03-01T03:02:55.954Z,0
2016-03-01T03:03:56.113Z,0
2016-03-01T03:04:55.929Z,0
2016-03-01T03:05:55.868Z,0
2016-03-01T03:06:55.871Z,0
2016-03-01T03:07:55.812Z,0
2016-03-01T03:08:55.799Z,0
2016-03-01T03:09:55.785Z,0
2016-03-01T03:10:55.757Z,0
2016-03-01T03:11:55.728Z,0
2016-03-01T03:12:55.715Z,0
2016-03-01T03:13:55.687Z,0
2016-03-01T03:14:55.751Z,0
2016-03-01T03:15:55.629Z,0
2016-03-01T03:16:55.601Z,0
2016-03-01T03:17:55.572Z,0
2016-03-01T03:18:55.559Z,0
2016-03-01T03:19:55.531Z,0
2016-03-01T03:20:55.502Z,0
2016-03-01T03:21:55.489Z,0
2016-03-01T03:22:55.477Z,0
2016-03-01T03:23:55.417Z,0
2016-03-01T03:24:55.403Z,0
2016-03-01T03:25:55.595Z,0
2016-03-01T03:26:55.347Z,0
2016-03-01T03:27:55.350Z,0
2016-03-01T03:28:55.289Z,0
2016-03-01T03:29:55.261Z,0
2016-03-01T03:30:55.294Z,0
2016-03-01T03:31:55.235Z,0
2016-03-01T03:32:55.207Z,0
2016-03-01T03:33:55.178Z,0
2016-03-01T03:34:55.134Z,0
2016-03-01T03:35:55.137Z,0
2016-03-01T03:36:55.108Z,0
2016-03-01T03:37:55.063Z,0
2016-03-01T03:38:55.036Z,0
2016-03-01T03:39:55.038Z,0
2016-03-01T03:40:54.979Z,0
2016-03-01T03:41:54.981Z,0
2016-03-01T03:42:54.952Z,0
2016-03-01T03:43:54.909Z,0
2016-03-01T03:44:54.896Z,0
2016-03-01T03:45:54.851Z,0
2016-03-01T03:46:54.838Z,0
2016-03-01T03:47:55.465Z,0
2016-03-01T03:48:54.781Z,0
2016-03-01T03:49:54.767Z,0
2016-03-01T03:50:54.724Z,0
2016-03-01T03:51:54.695Z,0
2016-03-01T03:52:54.698Z,0
2016-03-01T03:53:54.653Z,0
2016-03-01T03:54:54.688Z,0
2016-03-01T03:55:54.455Z,0
2016-03-01T03:56:54.569Z,0
2016-03-01T03:57:54.556Z,0
2016-03-01T03:58:54.527Z,0
2016-03-01T03:59:54.482Z,0
2016-03-01T04:00:54.500Z,0
2016-03-01T04:01:54.425Z,0
2016-03-01T04:02:54.428Z,0
2016-03-01T04:03:54.431Z,0
2016-03-01T04:04:54.433Z,0
2016-03-01T04:05:54.421Z,0
2016-03-01T04:06:54.313Z,0
2016-03-01T04:07:54.285Z,0
2016-03-01T04:08:54.271Z,0
2016-03-01T04:09:54.244Z,0
2016-03-01T04:10:54.210Z,0
2016-03-01T04:11:54.213Z,0
2016-03-01T04:12:54.185Z,0
2016-03-01T04:13:54.124Z,0
2016-03-01T04:14:54.112Z,0
2016-03-01T04:15:54.099Z,0
2016-03-01T04:16:54.242Z,0
2016-03-01T04:17:54.073Z,0
2016-03-01T04:18:54.013Z,0
2016-03-01T04:19:54.015Z,0
2016-03-01T04:20:53.972Z,0
2016-03-01T04:21:53.959Z,0
2016-03-01T04:22:53.899Z,0
2016-03-01T04:23:53.917Z,0
2016-03-01T04:24:53.857Z,0
2016-03-01T04:25:53.829Z,0
2016-03-01T04:26:53.801Z,0
2016-03-01T04:27:53.772Z,0
2016-03-01T04:28:53.759Z,0
2016-03-01T04:29:53.714Z,0
2016-03-01T04:30:53.717Z,0
2016-03-01T04:31:53.689Z,0
2016-03-01T04:32:53.645Z,0
2016-03-01T04:33:53.632Z,0
2016-03-01T04:34:53.634Z,0
2016-03-01T04:35:53.559Z,0
2016-03-01T04:36:53.546Z,0
2016-03-01T04:37:53.533Z,0
2016-03-01T04:38:53.489Z,0
2016-03-01T04:39:53.476Z,0
2016-03-01T04:40:53.447Z,0
2016-03-01T04:41:53.419Z,0
2016-03-01T04:42:53.421Z,0
2016-03-01T04:43:53.362Z,0
2016-03-01T04:44:53.349Z,0
2016-03-01T04:45:53.352Z,0
2016-03-01T04:46:53.307Z,0
2016-03-01T04:47:53.263Z,0
2016-03-01T04:48:53.250Z,0
2016-03-01T04:49:53.206Z,0
2016-03-01T04:50:53.192Z,0
2016-03-01T04:51:53.149Z,0
2016-03-01T04:52:53.120Z,0
2016-03-01T04:53:53.139Z,0
2016-03-01T04:54:53.141Z,0
2016-03-01T04:55:53.050Z,0
2016-03-01T04:56:53.053Z,0
2016-03-01T04:57:52.993Z,0
2016-03-01T04:58:52.996Z,0
2016-03-01T04:59:52.983Z,0
2016-03-01T05:00:53.111Z,0
2016-03-01T05:01:52.910Z,0
2016-03-01T05:02:52.897Z,0
2016-03-01T05:03:52.836Z,0
2016-03-01T05:04:52.825Z,0
2016-03-01T05:05:52.827Z,0
2016-03-01T05:06:52.767Z,0
2016-03-01T05:07:52.770Z,0
2016-03-01T05:08:52.741Z,0
2016-03-01T05:09:52.697Z,0
2016-03-01T05:10:52.887Z,0
2016-03-01T05:11:52.655Z,0
2016-03-01T05:12:52.643Z,0
2016-03-01T05:13:52.614Z,0
2016-03-01T05:14:52.554Z,0
2016-03-01T05:15:52.557Z,0
2016-03-01T05:16:52.529Z,0
2016-03-01T05:17:52.500Z,0
2016-03-01T05:18:52.642Z,0
2016-03-01T05:19:52.431Z,0
2016-03-01T05:20:52.438Z,0
2016-03-01T05:21:52.351Z,0
2016-03-01T05:22:52.328Z,0
2016-03-01T05:23:52.304Z,0
2016-03-01T05:24:52.240Z,0
2016-03-01T05:25:52.253Z,0
2016-03-01T05:26:52.174Z,0
2016-03-01T05:27:52.158Z,0
2016-03-01T05:28:52.156Z,0
2016-03-01T05:29:52.095Z,0
2016-03-01T05:30:52.080Z,0
2016-03-01T05:31:52.035Z,0
2016-03-01T05:32:52.020Z,0
2016-03-01T05:33:51.990Z,0
2016-03-01T05:34:51.960Z,0
2016-03-01T05:35:51.995Z,0
2016-03-01T05:36:51.903Z,0
2016-03-01T05:37:51.905Z,0
2016-03-01T05:38:51.876Z,0
2016-03-01T05:39:51.831Z,0
2016-03-01T05:40:51.835Z,0
2016-03-01T05:41:51.774Z,0
2016-03-01T05:42:51.761Z,0
2016-03-01T05:43:51.747Z,0
2016-03-01T05:44:51.719Z,0
2016-03-01T05:45:51.691Z,0
2016-03-01T05:46:51.662Z,0
2016-03-01T05:47:51.633Z,0
2016-03-01T05:48:51.589Z,0
2016-03-01T05:49:51.591Z,0
2016-03-01T05:50:51.719Z,0
2016-03-01T05:51:51.518Z,0
2016-03-01T05:52:51.505Z,0
2016-03-01T05:53:51.477Z,4
2016-03-01T05:54:51.449Z,4
2016-03-01T05:55:51.421Z,4
2016-03-01T05:56:51.266Z,4
2016-03-01T05:57:51.362Z,4
2016-03-01T05:58:51.335Z,8
2016-03-01T05:59:51.337Z,4
2016-03-01T06:00:51.324Z,8
2016-03-01T06:01:51.280Z,8
2016-03-01T06:02:51.251Z,8
2016-03-01T06:03:51.223Z,12
2016-03-01T06:04:51.413Z,16
2016-03-01T06:05:51.165Z,16
2016-03-01T06:06:51.137Z,16
2016-03-01T06:07:51.109Z,24
2016-03-01T06:08:51.080Z,24
2016-03-01T06:09:51.223Z,28
2016-03-01T06:10:51.022Z,32
2016-03-01T06:11:51.026Z,40
2016-03-01T06:12:50.997Z,44
2016-03-01T06:13:50.953Z,52
2016-03-01T06:14:50.940Z,56
2016-03-01T06:15:50.911Z,60
2016-03-01T06:16:50.930Z,64
2016-03-01T06:17:50.869Z,72
2016-03-01T06:18:50.825Z,76
2016-03-01T06:19:50.828Z,84
2016-03-01T06:20:51.003Z,88
2016-03-01T06:21:50.755Z,96
2016-03-01T06:22:50.727Z,104
2016-03-01T06:23:50.682Z,112
2016-03-01T06:24:50.671Z,120
2016-03-01T06:25:50.641Z,132
2016-03-01T06:26:50.629Z,144
2016-03-01T06:27:50.600Z,152
2016-03-01T06:28:50.556Z,160
2016-03-01T06:29:50.574Z,172
2016-03-01T06:30:50.546Z,184
2016-03-01T06:31:50.548Z,196
2016-03-01T06:32:50.488Z,208
2016-03-01T06:33:50.445Z,220
2016-03-01T06:34:50.431Z,232
2016-03-01T06:35:50.403Z,244
2016-03-01T06:36:50.373Z,256
2016-03-01T06:37:50.331Z,268
2016-03-01T06:38:50.301Z,280
2016-03-01T06:39:50.289Z,296
2016-03-01T06:40:50.291Z,304
2016-03-01T06:41:50.247Z,312
2016-03-01T06:42:50.219Z,324
2016-03-01T06:43:50.190Z,332
2016-03-01T06:44:50.161Z,344
2016-03-01T06:45:50.133Z,352
2016-03-01T06:46:50.120Z,360
2016-03-01T06:47:50.091Z,368
2016-03-01T06:48:50.063Z,376
2016-03-01T06:49:50.049Z,384
2016-03-01T06:50:50.021Z,392
2016-03-01T06:51:50.008Z,400
2016-03-01T06:52:49.948Z,404
2016-03-01T06:53:49.919Z,408
2016-03-01T06:54:49.891Z,408
2016-03-01T06:55:49.879Z,412
2016-03-01T06:56:49.866Z,416
2016-03-01T06:57:49.837Z,424
2016-03-01T06:58:49.824Z,428
2016-03-01T06:59:49.765Z,432
2016-03-01T07:00:49.751Z,436
2016-03-01T07:01:49.723Z,440
2016-03-01T07:02:49.726Z,444
2016-03-01T07:03:49.682Z,448
2016-03-01T07:04:49.668Z,448
2016-03-01T07:05:49.624Z,444
2016-03-01T07:06:49.845Z,440
2016-03-01T07:07:49.567Z,440
2016-03-01T07:08:49.539Z,440
2016-03-01T07:09:49.510Z,440
2016-03-01T07:10:49.497Z,444
2016-03-01T07:11:49.609Z,448
2016-03-01T07:12:49.439Z,452
2016-03-01T07:13:49.396Z,456
2016-03-01T07:14:49.414Z,460
2016-03-01T07:15:49.401Z,460
2016-03-01T07:16:49.341Z,460
2016-03-01T07:17:49.313Z,460
2016-03-01T07:18:49.284Z,464
2016-03-01T07:19:49.286Z,476
2016-03-01T07:20:49.242Z,484
2016-03-01T07:21:49.214Z,496
2016-03-01T07:22:49.202Z,500
2016-03-01T07:23:49.172Z,508
2016-03-01T07:24:49.128Z,512
2016-03-01T07:25:49.115Z,520
2016-03-01T07:26:49.103Z,528
2016-03-01T07:27:49.058Z,536
2016-03-01T07:28:49.046Z,548
2016-03-01T07:29:48.985Z,564
2016-03-01T07:30:48.988Z,568
2016-03-01T07:31:48.943Z,580
2016-03-01T07:32:48.931Z,588
2016-03-01T07:33:48.918Z,592
2016-03-01T07:34:48.874Z,596
2016-03-01T07:35:48.845Z,596
2016-03-01T07:36:48.832Z,596
2016-03-01T07:37:48.788Z,604
2016-03-01T07:38:48.759Z,604
2016-03-01T07:39:48.762Z,612
2016-03-01T07:40:48.796Z,620
2016-03-01T07:41:48.690Z,628
2016-03-01T07:42:48.709Z,632
2016-03-01T07:43:48.836Z,636
2016-03-01T07:44:48.619Z,636
2016-03-01T07:45:48.606Z,636
2016-03-01T07:46:49.156Z,644
2016-03-01T07:47:48.565Z,648
2016-03-01T07:48:48.506Z,656
2016-03-01T07:49:48.508Z,668
2016-03-01T07:50:48.510Z,680
2016-03-01T07:51:48.451Z,696
2016-03-01T07:52:48.422Z,712
2016-03-01T07:53:48.394Z,724
2016-03-01T07:54:48.365Z,740
2016-03-01T07:55:48.336Z,752
2016-03-01T07:56:48.355Z,768
2016-03-01T07:57:48.420Z,776
2016-03-01T07:58:48.267Z,796
2016-03-01T07:59:48.269Z,812
2016-03-01T08:00:48.224Z,832
2016-03-01T08:01:48.181Z,848
2016-03-01T08:02:48.152Z,864
2016-03-01T08:03:48.390Z,876
2016-03-01T08:04:48.110Z,888
2016-03-01T08:05:48.098Z,896
2016-03-01T08:06:48.054Z,908
2016-03-01T08:07:48.228Z,916
2016-03-01T08:08:48.246Z,928
2016-03-01T08:09:47.999Z,936
2016-03-01T08:10:47.956Z,940
2016-03-01T08:11:47.942Z,948
2016-03-01T08:12:47.929Z,956
2016-03-01T08:13:48.010Z,968
2016-03-01T08:14:47.856Z,976
2016-03-01T08:15:47.844Z,988
2016-03-01T08:16:47.799Z,1000
2016-03-01T08:17:47.771Z,1012
2016-03-01T08:18:47.742Z,1028
2016-03-01T08:19:47.745Z,1036
2016-03-01T08:20:47.701Z,1052
2016-03-01T08:21:47.672Z,1068
2016-03-01T08:22:47.644Z,1080
2016-03-01T08:23:47.630Z,1100
2016-03-01T08:24:47.586Z,1112
2016-03-01T08:25:47.574Z,1124
2016-03-01T08:26:47.779Z,1144
2016-03-01T08:27:47.516Z,1156
2016-03-01T08:28:47.519Z,1172
2016-03-01T08:29:47.490Z,1188
2016-03-01T08:30:47.446Z,1200
2016-03-01T08:31:47.449Z,1204
2016-03-01T08:32:47.515Z,1212
2016-03-01T08:33:47.360Z,1216
2016-03-01T08:34:47.348Z,1224
2016-03-01T08:35:47.335Z,1224
2016-03-01T08:36:47.291Z,1224
2016-03-01T08:37:47.293Z,1236
2016-03-01T08:38:47.248Z,1244
2016-03-01T08:39:47.237Z,1260
2016-03-01T08:40:47.192Z,1268
2016-03-01T08:41:47.179Z,1280
2016-03-01T08:42:47.151Z,1284
2016-03-01T08:43:47.153Z,1292
2016-03-01T08:44:47.093Z,1296
2016-03-01T08:45:47.064Z,1300
2016-03-01T08:46:47.037Z,1308
2016-03-01T08:47:47.008Z,1320
2016-03-01T08:48:46.978Z,1328
2016-03-01T08:49:46.950Z,1340
2016-03-01T08:50:46.938Z,1348
2016-03-01T08:51:46.909Z,1352
2016-03-01T08:52:46.881Z,1360
2016-03-01T08:53:46.853Z,1368
2016-03-01T08:54:46.839Z,1384
2016-03-01T08:55:46.794Z,1400
2016-03-01T08:56:46.767Z,1412
2016-03-01T08:57:46.753Z,1424
2016-03-01T08:58:46.741Z,1432
2016-03-01T08:59:46.962Z,1448
2016-03-01T09:00:46.683Z,1464
2016-03-01T09:01:46.702Z,1484
2016-03-01T09:02:46.626Z,1508
2016-03-01T09:03:46.598Z,1524
2016-03-01T09:04:46.616Z,1540
2016-03-01T09:05:46.556Z,1556
2016-03-01T09:06:46.527Z,1568
2016-03-01T09:07:46.499Z,1580
2016-03-01T09:08:46.470Z,1596
2016-03-01T09:09:46.457Z,1620
2016-03-01T09:10:46.459Z,1644
2016-03-01T09:11:46.401Z,1680
2016-03-01T09:12:46.403Z,1720
2016-03-01T09:13:46.343Z,1756
2016-03-01T09:14:46.331Z,1796
2016-03-01T09:15:46.301Z,1840
2016-03-01T09:16:46.336Z,1892
2016-03-01T09:17:46.244Z,1936
2016-03-01T09:18:46.357Z,1976
2016-03-01T09:19:46.203Z,2008
2016-03-01T09:20:46.190Z,2044
2016-03-01T09:21:46.146Z,2068
2016-03-01T09:22:46.117Z,2092
2016-03-01T09:23:46.105Z,2112
2016-03-01T09:24:46.075Z,2140
2016-03-01T09:25:46.048Z,2164
2016-03-01T09:26:46.035Z,2192
2016-03-01T09:27:46.005Z,2208
2016-03-01T09:28:45.993Z,2224
2016-03-01T09:29:45.949Z,2232
2016-03-01T09:30:45.921Z,2248
2016-03-01T09:31:45.891Z,2248
2016-03-01T09:32:45.863Z,2260
2016-03-01T09:33:45.850Z,2264
2016-03-01T09:34:45.837Z,2268
2016-03-01T09:35:45.809Z,2276
2016-03-01T09:36:45.796Z,2292
2016-03-01T09:37:45.768Z,2308
2016-03-01T09:38:45.723Z,2328
2016-03-01T09:39:45.710Z,2352
2016-03-01T09:40:45.713Z,2368
2016-03-01T09:41:45.653Z,2392
2016-03-01T09:42:45.623Z,2396
2016-03-01T09:43:45.595Z,2392
2016-03-01T09:44:45.629Z,2388
2016-03-01T09:45:45.554Z,2376
2016-03-01T09:46:45.525Z,2360
2016-03-01T09:47:45.498Z,2344
2016-03-01T09:48:45.484Z,2324
2016-03-01T09:49:45.455Z,2308
2016-03-01T09:50:45.474Z,2288
2016-03-01T09:51:45.398Z,2268
2016-03-01T09:52:45.385Z,2252
2016-03-01T09:53:45.372Z,2228
2016-03-01T09:54:45.344Z,2216
2016-03-01T09:55:45.284Z,2208
2016-03-01T09:56:45.271Z,2204
2016-03-01T09:57:45.259Z,2220
2016-03-01T09:58:45.308Z,2244
2016-03-01T09:59:45.217Z,2264
2016-03-01T10:00:45.157Z,2280
2016-03-01T10:01:45.379Z,2296
2016-03-01T10:02:45.194Z,2312
2016-03-01T10:03:45.102Z,2328
2016-03-01T10:04:45.074Z,2352
2016-03-01T10:05:45.061Z,2380
2016-03-01T10:06:45.143Z,2428
2016-03-01T10:07:45.004Z,2472
2016-03-01T10:08:44.991Z,2520
2016-03-01T10:09:44.947Z,2540
2016-03-01T10:10:44.934Z,2556
2016-03-01T10:11:44.906Z,2548
2016-03-01T10:12:44.893Z,2560
2016-03-01T10:13:44.864Z,2568
2016-03-01T10:14:44.835Z,2588
2016-03-01T10:15:44.806Z,2612
2016-03-01T10:16:44.762Z,2628
2016-03-01T10:17:44.015Z,2640
2016-03-01T10:18:44.736Z,2664
2016-03-01T10:19:44.709Z,2684
2016-03-01T10:20:44.680Z,2696
2016-03-01T10:21:44.666Z,2700
2016-03-01T10:22:44.622Z,2688
2016-03-01T10:23:44.625Z,2696
2016-03-01T10:24:44.597Z,2716
2016-03-01T10:25:44.568Z,2732
2016-03-01T10:26:44.539Z,2764
2016-03-01T10:27:44.542Z,2800
2016-03-01T10:28:44.497Z,2832
2016-03-01T10:29:44.438Z,2868
2016-03-01T10:30:44.472Z,2908
2016-03-01T10:31:44.413Z,2952
2016-03-01T10:32:44.415Z,2984
2016-03-01T10:33:44.386Z,2996
2016-03-01T10:34:44.202Z,3000
2016-03-01T10:35:44.360Z,3008
2016-03-01T10:36:44.285Z,3024
2016-03-01T10:37:44.271Z,3028
2016-03-01T10:38:44.244Z,3032
2016-03-01T10:39:44.199Z,3020
2016-03-01T10:40:44.234Z,3016
2016-03-01T10:41:44.143Z,3024
2016-03-01T10:42:44.145Z,3052
2016-03-01T10:43:44.117Z,3076
2016-03-01T10:44:44.151Z,3084
2016-03-01T10:45:44.107Z,3072
2016-03-01T10:46:44.343Z,3076
2016-03-01T10:47:44.017Z,3072
2016-03-01T10:48:43.990Z,3060
2016-03-01T10:49:43.961Z,3060
2016-03-01T10:50:44.229Z,3080
2016-03-01T10:51:44.264Z,3120
2016-03-01T10:52:43.906Z,3156
2016-03-01T10:53:43.861Z,3184
2016-03-01T10:54:43.864Z,3232
2016-03-01T10:55:43.883Z,3284
2016-03-01T10:56:43.995Z,3300
2016-03-01T10:57:43.779Z,3312
2016-03-01T10:58:43.766Z,3304
2016-03-01T10:59:43.769Z,3344
2016-03-01T11:00:43.708Z,3380
2016-03-01T11:01:43.916Z,3416
2016-03-01T11:02:43.652Z,3440
2016-03-01T11:03:43.624Z,3500
2016-03-01T11:04:43.626Z,3536
2016-03-01T11:05:43.582Z,3572
2016-03-01T11:06:43.569Z,3612
2016-03-01T11:07:43.540Z,3648
2016-03-01T11:08:43.824Z,3652
2016-03-01T11:09:43.483Z,3636
2016-03-01T11:10:43.471Z,3636
2016-03-01T11:11:43.473Z,3648
2016-03-01T11:12:43.413Z,3640
2016-03-01T11:13:43.401Z,3636
2016-03-01T11:14:43.371Z,3632
2016-03-01T11:15:43.374Z,3620
2016-03-01T11:16:43.315Z,3616
2016-03-01T11:17:43.286Z,3600
2016-03-01T11:18:43.257Z,3596
2016-03-01T11:19:43.259Z,3604
2016-03-01T11:20:43.232Z,3604
2016-03-01T11:21:43.219Z,3628
2016-03-01T11:22:43.175Z,3656
2016-03-01T11:23:43.145Z,3696
2016-03-01T11:24:43.148Z,3740
2016-03-01T11:25:43.104Z,3780
2016-03-01T11:26:43.076Z,3784
2016-03-01T11:27:43.047Z,3780
2016-03-01T11:28:43.034Z,3784
2016-03-01T11:29:43.021Z,3804
2016-03-01T11:30:42.836Z,3812
2016-03-01T11:31:42.964Z,3816
2016-03-01T11:32:42.919Z,3812
2016-03-01T11:33:42.923Z,3824
2016-03-01T11:34:42.910Z,3832
2016-03-01T11:35:42.865Z,3824
2016-03-01T11:36:42.884Z,3812
2016-03-01T11:37:42.808Z,3812
2016-03-01T11:38:42.796Z,3812
2016-03-01T11:39:42.782Z,3820
2016-03-01T11:40:42.770Z,3828
2016-03-01T11:41:42.710Z,3840
2016-03-01T11:42:42.728Z,3852
2016-03-01T11:43:42.685Z,3864
2016-03-01T11:44:42.718Z,3892
2016-03-01T11:45:42.627Z,3912
2016-03-01T11:46:42.598Z,3932
2016-03-01T11:47:42.835Z,3936
2016-03-01T11:48:42.635Z,3960
2016-03-01T11:49:42.544Z,3988
2016-03-01T11:50:42.500Z,3976
2016-03-01T11:51:42.487Z,3964
2016-03-01T11:52:42.489Z,3956
2016-03-01T11:53:42.462Z,3956
2016-03-01T11:54:42.401Z,3928
2016-03-01T11:55:42.420Z,3916
2016-03-01T11:56:42.359Z,3896
2016-03-01T11:57:42.347Z,3888
2016-03-01T11:58:42.318Z,3868
2016-03-01T11:59:42.305Z,3864
2016-03-01T12:00:42.276Z,3832
2016-03-01T12:01:42.248Z,3792
2016-03-01T12:02:42.235Z,3764
2016-03-01T12:03:42.207Z,3724
2016-03-01T12:04:42.178Z,3728
2016-03-01T12:05:42.165Z,3768
2016-03-01T12:06:42.122Z,3812
2016-03-01T12:07:42.109Z,3820
2016-03-01T12:08:42.080Z,3816
2016-03-01T12:09:42.052Z,3808
2016-03-01T12:10:42.022Z,3792
2016-03-01T12:11:42.011Z,3784
2016-03-01T12:12:41.982Z,3776
2016-03-01T12:13:41.969Z,3768
2016-03-01T12:14:41.784Z,3744
2016-03-01T12:15:41.911Z,3728
2016-03-01T12:16:41.914Z,3692
2016-03-01T12:17:41.949Z,3608
2016-03-01T12:18:41.857Z,3432
2016-03-01T12:19:41.688Z,3300
2016-03-01T12:20:41.815Z,3228
2016-03-01T12:21:41.772Z,3148
2016-03-01T12:22:41.743Z,3088
2016-03-01T12:23:41.730Z,3068
2016-03-01T12:24:41.749Z,3096
2016-03-01T12:25:41.673Z,3168
2016-03-01T12:26:41.659Z,3252
2016-03-01T12:27:41.615Z,3292
2016-03-01T12:28:41.603Z,3284
2016-03-01T12:29:41.605Z,3232
2016-03-01T12:30:41.561Z,3180
2016-03-01T12:31:41.533Z,3152
2016-03-01T12:32:41.536Z,3140
2016-03-01T12:33:41.492Z,3140
2016-03-01T12:34:41.478Z,3184
2016-03-01T12:35:41.450Z,3216
2016-03-01T12:36:41.483Z,3216
2016-03-01T12:37:41.393Z,3176
2016-03-01T12:38:41.427Z,3108
2016-03-01T12:39:41.350Z,3020
2016-03-01T12:40:41.526Z,2948
2016-03-01T12:41:41.294Z,2888
2016-03-01T12:42:41.266Z,2836
2016-03-01T12:43:41.253Z,2796
2016-03-01T12:44:41.256Z,2760
2016-03-01T12:45:42.008Z,2740
2016-03-01T12:46:41.183Z,2724
2016-03-01T12:47:40.483Z,2712
2016-03-01T12:48:41.125Z,2712
2016-03-01T12:49:41.394Z,2732
2016-03-01T12:50:41.084Z,2740
2016-03-01T12:51:41.055Z,2740
2016-03-01T12:52:41.043Z,2740
2016-03-01T12:53:41.060Z,2760
2016-03-01T12:54:41.157Z,2784
2016-03-01T12:55:40.988Z,2804
2016-03-01T12:56:40.991Z,2828
2016-03-01T12:57:40.915Z,2840
2016-03-01T12:58:40.886Z,2832
2016-03-01T12:59:40.859Z,2832
2016-03-01T13:00:41.220Z,2824
2016-03-01T13:01:40.817Z,2804
2016-03-01T13:02:40.820Z,2792
2016-03-01T13:03:40.634Z,2780
2016-03-01T13:04:40.762Z,2764
2016-03-01T13:05:40.718Z,2748
2016-03-01T13:06:40.689Z,2744
2016-03-01T13:07:40.692Z,2732
2016-03-01T13:08:40.679Z,2712
2016-03-01T13:09:40.620Z,2692
2016-03-01T13:10:40.606Z,2696
2016-03-01T13:11:40.578Z,2700
2016-03-01T13:12:40.564Z,2704
2016-03-01T13:13:40.522Z,2700
2016-03-01T13:14:40.525Z,2656
2016-03-01T13:15:40.495Z,2588
2016-03-01T13:16:40.483Z,2524
2016-03-01T13:17:40.438Z,2476
2016-03-01T13:18:40.425Z,2444
2016-03-01T13:19:40.380Z,2400
2016-03-01T13:20:40.369Z,2368
2016-03-01T13:21:40.371Z,2356
2016-03-01T13:22:40.310Z,2360
2016-03-01T13:23:40.298Z,2356
2016-03-01T13:24:40.457Z,2348
2016-03-01T13:25:40.257Z,2336
2016-03-01T13:26:40.243Z,2328
2016-03-01T13:27:40.199Z,2308
2016-03-01T13:28:40.170Z,2272
2016-03-01T13:29:40.158Z,2244
2016-03-01T13:30:40.129Z,2224
2016-03-01T13:31:40.115Z,2212
2016-03-01T13:32:40.073Z,2188
2016-03-01T13:33:40.043Z,2140
2016-03-01T13:34:40.031Z,2088
2016-03-01T13:35:40.268Z,2052
2016-03-01T13:36:39.989Z,2060
2016-03-01T13:37:39.961Z,2056
2016-03-01T13:38:39.931Z,2020
2016-03-01T13:39:39.904Z,1996
2016-03-01T13:40:40.078Z,1968
2016-03-01T13:41:39.878Z,1936
2016-03-01T13:42:39.850Z,1908
2016-03-01T13:43:39.841Z,1880
2016-03-01T13:44:39.781Z,1844
2016-03-01T13:45:39.768Z,1808
2016-03-01T13:46:39.614Z,1792
2016-03-01T13:47:39.726Z,1792
2016-03-01T13:48:39.699Z,1772
2016-03-01T13:49:39.685Z,1752
2016-03-01T13:50:39.657Z,1748
2016-03-01T13:51:39.800Z,1748
2016-03-01T13:52:39.505Z,1752
2016-03-01T13:53:39.571Z,1748
2016-03-01T13:54:39.558Z,1732
2016-03-01T13:55:39.543Z,1736
2016-03-01T13:56:39.498Z,1736
2016-03-01T13:57:39.485Z,1704
2016-03-01T13:58:39.457Z,1652